KHRL/HRL METAR and TAF weather

Enter ICAO airport designator
Station Type Date Time Source
KHRL METAR 2021/03/01 08:52 UTC NOAA

KHRL 010852Z AUTO 17011KT 9SM OVC022 24/21 A2983 RMK AO2 SLP100 T02390206 53003


Station Type Date Time Source
KHRL Decoded METAR 2021/03/01 08:52 UTC NOAA

RIO GRANDE VALLEY, TX, United States (KHRL) 26-13N 97-39W 10M
Mar 01, 2021 - 03:52 AM EST / 2021.03.01 0852 UTC
Wind: from the S (170 degrees) at 13 MPH (11 KT):0
Visibility: 9 mile(s):0
Sky conditions: overcast
Temperature: 75.0 F (23.9 C)
Dew Point: 69.1 F (20.6 C)
Relative Humidity: 81%
Pressure (altimeter): 29.83 in. Hg (1010 hPa)
Pressure tendency: 0.01 inches (0.3 hPa) higher than three hours ago
ob: KHRL 010852Z AUTO 17011KT 9SM OVC022 24/21 A2983 RMK AO2 SLP100 T02390206 53003
cycle: 9

Station Type Date Time Source
KHRL TAF 2021/03/01 06:22 UTC NOAA

TAF KHRL 010520Z 0106/0206 15011KT P6SM OVC008
FM011200 13005KT P6SM OVC006
FM011500 13007KT P6SM OVC011
FM011900 36007KT 6SM -SHRA OVC010
FM012100 34013KT 6SM -SHRA OVC008
FM020400 33015G23KT P6SM OVC011 PROB30 0204/0206 4SM -SHRA OVC009

Example: see airport list